sensor_id;sensor_type;location;lat;lon;timestamp;P1;durP1;ratioP1;P2;durP2;ratioP2
60859;SDS011;46694;54.382;9.708;2022-12-29T00:02:01;21.33;;;13.60;;
60859;SDS011;46694;54.382;9.708;2022-12-29T00:04:41;17.80;;;14.20;;
60859;SDS011;46694;54.382;9.708;2022-12-29T00:07:20;16.87;;;13.83;;
60859;SDS011;46694;54.382;9.708;2022-12-29T00:10:00;14.88;;;12.60;;
60859;SDS011;46694;54.382;9.708;2022-12-29T00:12:40;17.70;;;13.53;;
60859;SDS011;46694;54.382;9.708;2022-12-29T00:15:38;17.63;;;14.57;;
60859;SDS011;46694;54.382;9.708;2022-12-29T00:18:18;16.13;;;13.80;;
60859;SDS011;46694;54.382;9.708;2022-12-29T00:20:57;17.03;;;14.20;;
60859;SDS011;46694;54.382;9.708;2022-12-29T00:23:56;17.17;;;15.20;;
60859;SDS011;46694;54.382;9.708;2022-12-29T00:29:56;15.77;;;13.83;;
60859;SDS011;46694;54.382;9.708;2022-12-29T00:32:54;17.53;;;15.73;;
60859;SDS011;46694;54.382;9.708;2022-12-29T00:35:53;18.53;;;15.33;;
60859;SDS011;46694;54.382;9.708;2022-12-29T00:38:39;16.03;;;13.40;;
60859;SDS011;46694;54.382;9.708;2022-12-29T00:41:42;15.93;;;14.03;;
60859;SDS011;46694;54.382;9.708;2022-12-29T00:44:40;16.57;;;14.63;;
60859;SDS011;46694;54.382;9.708;2022-12-29T00:47:19;14.90;;;13.17;;
60859;SDS011;46694;54.382;9.708;2022-12-29T00:49:59;15.47;;;13.87;;
60859;SDS011;46694;54.382;9.708;2022-12-29T00:52:39;17.10;;;15.17;;
60859;SDS011;46694;54.382;9.708;2022-12-29T00:55:18;20.17;;;14.50;;
60859;SDS011;46694;54.382;9.708;2022-12-29T00:57:58;17.07;;;13.73;;
60859;SDS011;46694;54.382;9.708;2022-12-29T01:00:37;17.27;;;15.43;;
60859;SDS011;46694;54.382;9.708;2022-12-29T01:03:17;16.23;;;14.53;;
60859;SDS011;46694;54.382;9.708;2022-12-29T01:05:56;18.90;;;15.23;;
60859;SDS011;46694;54.382;9.708;2022-12-29T01:08:43;18.00;;;16.07;;
60859;SDS011;46694;54.382;9.708;2022-12-29T01:11:23;16.30;;;14.40;;
60859;SDS011;46694;54.382;9.708;2022-12-29T01:14:03;17.37;;;15.57;;
60859;SDS011;46694;54.382;9.708;2022-12-29T01:16:42;16.50;;;13.60;;
60859;SDS011;46694;54.382;9.708;2022-12-29T01:19:23;19.03;;;14.50;;
60859;SDS011;46694;54.382;9.708;2022-12-29T01:22:03;17.20;;;15.10;;
60859;SDS011;46694;54.382;9.708;2022-12-29T01:24:42;18.13;;;16.20;;
60859;SDS011;46694;54.382;9.708;2022-12-29T01:27:22;17.40;;;15.50;;
60859;SDS011;46694;54.382;9.708;2022-12-29T01:30:01;19.67;;;15.70;;
60859;SDS011;46694;54.382;9.708;2022-12-29T01:32:41;19.13;;;16.80;;
60859;SDS011;46694;54.382;9.708;2022-12-29T01:35:21;18.40;;;16.40;;
60859;SDS011;46694;54.382;9.708;2022-12-29T01:38:00;19.20;;;16.47;;
60859;SDS011;46694;54.382;9.708;2022-12-29T01:40:44;19.07;;;16.73;;
60859;SDS011;46694;54.382;9.708;2022-12-29T01:49:19;20.42;;;16.48;;
60859;SDS011;46694;54.382;9.708;2022-12-29T01:52:04;20.90;;;16.17;;
60859;SDS011;46694;54.382;9.708;2022-12-29T01:54:47;22.13;;;17.33;;
60859;SDS011;46694;54.382;9.708;2022-12-29T01:57:32;21.20;;;17.10;;
60859;SDS011;46694;54.382;9.708;2022-12-29T02:00:16;19.03;;;17.10;;
60859;SDS011;46694;54.382;9.708;2022-12-29T02:02:56;20.00;;;17.20;;
60859;SDS011;46694;54.382;9.708;2022-12-29T02:05:37;20.37;;;16.57;;
60859;SDS011;46694;54.382;9.708;2022-12-29T02:08:25;19.03;;;16.97;;
60859;SDS011;46694;54.382;9.708;2022-12-29T02:11:07;20.07;;;17.47;;
60859;SDS011;46694;54.382;9.708;2022-12-29T02:13:47;22.53;;;16.60;;
60859;SDS011;46694;54.382;9.708;2022-12-29T02:16:49;21.10;;;17.70;;
60859;SDS011;46694;54.382;9.708;2022-12-29T02:20:37;18.67;;;16.70;;
60859;SDS011;46694;54.382;9.708;2022-12-29T02:36:44;20.63;;;18.30;;
60859;SDS011;46694;54.382;9.708;2022-12-29T02:39:47;22.47;;;17.03;;
60859;SDS011;46694;54.382;9.708;2022-12-29T02:49:03;34.57;;;19.17;;
60859;SDS011;46694;54.382;9.708;2022-12-29T02:54:31;25.13;;;20.30;;
60859;SDS011;46694;54.382;9.708;2022-12-29T03:00:10;24.30;;;19.53;;
60859;SDS011;46694;54.382;9.708;2022-12-29T03:03:08;22.30;;;19.83;;
60859;SDS011;46694;54.382;9.708;2022-12-29T03:06:11;19.67;;;17.67;;
60859;SDS011;46694;54.382;9.708;2022-12-29T03:15:41;20.93;;;18.70;;
60859;SDS011;46694;54.382;9.708;2022-12-29T03:19:04;21.40;;;19.07;;
60859;SDS011;46694;54.382;9.708;2022-12-29T03:21:56;22.67;;;19.27;;
60859;SDS011;46694;54.382;9.708;2022-12-29T03:25:02;24.47;;;18.70;;
60859;SDS011;46694;54.382;9.708;2022-12-29T03:27:52;21.83;;;19.50;;
60859;SDS011;46694;54.382;9.708;2022-12-29T03:30:37;23.13;;;18.77;;
60859;SDS011;46694;54.382;9.708;2022-12-29T03:33:21;27.10;;;19.10;;
60859;SDS011;46694;54.382;9.708;2022-12-29T03:36:05;25.13;;;18.33;;
60859;SDS011;46694;54.382;9.708;2022-12-29T03:38:51;23.37;;;18.30;;
60859;SDS011;46694;54.382;9.708;2022-12-29T03:41:47;20.20;;;18.10;;
60859;SDS011;46694;54.382;9.708;2022-12-29T03:44:37;25.73;;;18.23;;
60859;SDS011;46694;54.382;9.708;2022-12-29T03:47:20;20.63;;;18.43;;
60859;SDS011;46694;54.382;9.708;2022-12-29T03:50:01;22.43;;;19.20;;
60859;SDS011;46694;54.382;9.708;2022-12-29T03:52:41;28.33;;;19.03;;
60859;SDS011;46694;54.382;9.708;2022-12-29T03:55:21;19.87;;;17.77;;
60859;SDS011;46694;54.382;9.708;2022-12-29T03:58:01;21.10;;;18.73;;
60859;SDS011;46694;54.382;9.708;2022-12-29T04:00:40;20.83;;;18.73;;
60859;SDS011;46694;54.382;9.708;2022-12-29T04:03:20;20.10;;;18.00;;
60859;SDS011;46694;54.382;9.708;2022-12-29T04:06:00;24.33;;;17.13;;
60859;SDS011;46694;54.382;9.708;2022-12-29T04:08:39;21.03;;;17.70;;
60859;SDS011;46694;54.382;9.708;2022-12-29T04:11:19;19.60;;;17.03;;
60859;SDS011;46694;54.382;9.708;2022-12-29T04:14:00;18.53;;;16.37;;
60859;SDS011;46694;54.382;9.708;2022-12-29T04:16:40;16.80;;;15.10;;
60859;SDS011;46694;54.382;9.708;2022-12-29T04:19:20;18.13;;;16.23;;
60859;SDS011;46694;54.382;9.708;2022-12-29T04:21:59;17.50;;;15.60;;
60859;SDS011;46694;54.382;9.708;2022-12-29T04:24:39;17.77;;;15.00;;
60859;SDS011;46694;54.382;9.708;2022-12-29T04:27:18;17.57;;;15.73;;
60859;SDS011;46694;54.382;9.708;2022-12-29T04:29:58;19.47;;;15.53;;
60859;SDS011;46694;54.382;9.708;2022-12-29T04:32:38;18.27;;;16.50;;
60859;SDS011;46694;54.382;9.708;2022-12-29T04:35:17;16.40;;;14.80;;
60859;SDS011;46694;54.382;9.708;2022-12-29T04:37:57;16.93;;;15.23;;
60859;SDS011;46694;54.382;9.708;2022-12-29T04:40:40;16.07;;;14.43;;
60859;SDS011;46694;54.382;9.708;2022-12-29T04:43:21;18.07;;;15.80;;
60859;SDS011;46694;54.382;9.708;2022-12-29T04:46:00;17.90;;;15.20;;
60859;SDS011;46694;54.382;9.708;2022-12-29T04:48:40;20.63;;;15.97;;
60859;SDS011;46694;54.382;9.708;2022-12-29T04:51:20;19.07;;;16.17;;
60859;SDS011;46694;54.382;9.708;2022-12-29T04:54:00;18.77;;;16.13;;
60859;SDS011;46694;54.382;9.708;2022-12-29T04:56:39;18.30;;;16.40;;
60859;SDS011;46694;54.382;9.708;2022-12-29T04:59:18;19.67;;;15.73;;
60859;SDS011;46694;54.382;9.708;2022-12-29T05:01:58;17.80;;;15.97;;
60859;SDS011;46694;54.382;9.708;2022-12-29T05:04:38;16.70;;;14.90;;
60859;SDS011;46694;54.382;9.708;2022-12-29T05:07:17;19.13;;;16.30;;
60859;SDS011;46694;54.382;9.708;2022-12-29T05:09:57;17.33;;;15.50;;
60859;SDS011;46694;54.382;9.708;2022-12-29T05:12:37;19.67;;;14.90;;
60859;SDS011;46694;54.382;9.708;2022-12-29T05:15:17;16.90;;;15.10;;
60859;SDS011;46694;54.382;9.708;2022-12-29T05:17:57;17.80;;;15.17;;
60859;SDS011;46694;54.382;9.708;2022-12-29T05:20:36;17.10;;;14.00;;
60859;SDS011;46694;54.382;9.708;2022-12-29T05:23:16;16.03;;;14.40;;
60859;SDS011;46694;54.382;9.708;2022-12-29T05:25:55;15.60;;;14.00;;
60859;SDS011;46694;54.382;9.708;2022-12-29T05:28:35;15.33;;;13.77;;
60859;SDS011;46694;54.382;9.708;2022-12-29T05:31:15;16.57;;;14.80;;
60859;SDS011;46694;54.382;9.708;2022-12-29T05:33:54;15.87;;;14.37;;
60859;SDS011;46694;54.382;9.708;2022-12-29T05:36:34;17.10;;;14.50;;
60859;SDS011;46694;54.382;9.708;2022-12-29T05:39:13;15.63;;;13.93;;
60859;SDS011;46694;54.382;9.708;2022-12-29T05:41:53;18.20;;;13.37;;
60859;SDS011;46694;54.382;9.708;2022-12-29T05:44:32;20.27;;;16.00;;
60859;SDS011;46694;54.382;9.708;2022-12-29T05:47:12;17.13;;;14.73;;
60859;SDS011;46694;54.382;9.708;2022-12-29T05:49:51;20.63;;;15.90;;
60859;SDS011;46694;54.382;9.708;2022-12-29T05:52:31;17.03;;;14.93;;
60859;SDS011;46694;54.382;9.708;2022-12-29T05:55:11;22.90;;;14.70;;
60859;SDS011;46694;54.382;9.708;2022-12-29T05:57:50;15.67;;;13.30;;
60859;SDS011;46694;54.382;9.708;2022-12-29T06:00:30;13.20;;;11.90;;
60859;SDS011;46694;54.382;9.708;2022-12-29T06:03:09;11.33;;;10.23;;
60859;SDS011;46694;54.382;9.708;2022-12-29T06:05:49;12.20;;;11.00;;
60859;SDS011;46694;54.382;9.708;2022-12-29T06:08:29;9.70;;;8.80;;
60859;SDS011;46694;54.382;9.708;2022-12-29T06:11:08;9.23;;;8.43;;
60859;SDS011;46694;54.382;9.708;2022-12-29T06:13:48;8.30;;;7.50;;
60859;SDS011;46694;54.382;9.708;2022-12-29T06:16:28;8.90;;;7.20;;
60859;SDS011;46694;54.382;9.708;2022-12-29T06:19:07;6.20;;;5.70;;
60859;SDS011;46694;54.382;9.708;2022-12-29T06:21:47;8.73;;;6.47;;
60859;SDS011;46694;54.382;9.708;2022-12-29T06:24:26;5.40;;;4.50;;
60859;SDS011;46694;54.382;9.708;2022-12-29T06:27:06;7.07;;;4.10;;
60859;SDS011;46694;54.382;9.708;2022-12-29T06:29:45;5.10;;;4.63;;
60859;SDS011;46694;54.382;9.708;2022-12-29T06:32:25;9.13;;;4.00;;
60859;SDS011;46694;54.382;9.708;2022-12-29T06:35:05;5.10;;;4.60;;
60859;SDS011;46694;54.382;9.708;2022-12-29T06:37:45;4.47;;;3.63;;
60859;SDS011;46694;54.382;9.708;2022-12-29T06:40:24;7.00;;;4.97;;
60859;SDS011;46694;54.382;9.708;2022-12-29T06:43:03;10.13;;;3.37;;
60859;SDS011;46694;54.382;9.708;2022-12-29T06:45:43;4.83;;;3.93;;
60859;SDS011;46694;54.382;9.708;2022-12-29T06:48:22;4.47;;;4.17;;
60859;SDS011;46694;54.382;9.708;2022-12-29T06:51:02;3.73;;;3.53;;
60859;SDS011;46694;54.382;9.708;2022-12-29T06:53:42;4.43;;;4.10;;
60859;SDS011;46694;54.382;9.708;2022-12-29T06:56:21;4.07;;;3.67;;
60859;SDS011;46694;54.382;9.708;2022-12-29T06:59:01;3.00;;;2.80;;
60859;SDS011;46694;54.382;9.708;2022-12-29T07:01:41;2.80;;;2.60;;
60859;SDS011;46694;54.382;9.708;2022-12-29T07:04:21;8.10;;;2.50;;
60859;SDS011;46694;54.382;9.708;2022-12-29T07:07:01;4.47;;;2.73;;
60859;SDS011;46694;54.382;9.708;2022-12-29T07:09:40;2.60;;;2.40;;
60859;SDS011;46694;54.382;9.708;2022-12-29T07:12:20;2.60;;;2.03;;
60859;SDS011;46694;54.382;9.708;2022-12-29T07:14:59;5.03;;;3.00;;
60859;SDS011;46694;54.382;9.708;2022-12-29T07:17:39;4.73;;;2.23;;
60859;SDS011;46694;54.382;9.708;2022-12-29T07:20:19;1.90;;;1.80;;
60859;SDS011;46694;54.382;9.708;2022-12-29T07:22:58;2.37;;;1.90;;
60859;SDS011;46694;54.382;9.708;2022-12-29T07:25:38;2.67;;;2.07;;
60859;SDS011;46694;54.382;9.708;2022-12-29T07:28:19;4.23;;;2.07;;
60859;SDS011;46694;54.382;9.708;2022-12-29T07:30:59;6.37;;;2.40;;
60859;SDS011;46694;54.382;9.708;2022-12-29T07:33:38;3.97;;;1.30;;
60859;SDS011;46694;54.382;9.708;2022-12-29T07:36:18;9.00;;;1.63;;
60859;SDS011;46694;54.382;9.708;2022-12-29T07:38:57;7.63;;;2.20;;
60859;SDS011;46694;54.382;9.708;2022-12-29T07:41:37;4.20;;;1.30;;
60859;SDS011;46694;54.382;9.708;2022-12-29T07:44:17;3.10;;;1.53;;
60859;SDS011;46694;54.382;9.708;2022-12-29T07:46:56;3.53;;;0.90;;
60859;SDS011;46694;54.382;9.708;2022-12-29T07:49:45;6.10;;;1.40;;
60859;SDS011;46694;54.382;9.708;2022-12-29T07:52:25;4.70;;;1.73;;
60859;SDS011;46694;54.382;9.708;2022-12-29T07:55:05;6.47;;;2.60;;
60859;SDS011;46694;54.382;9.708;2022-12-29T07:57:45;8.40;;;1.27;;
60859;SDS011;46694;54.382;9.708;2022-12-29T08:00:25;7.67;;;1.73;;
60859;SDS011;46694;54.382;9.708;2022-12-29T08:03:04;12.10;;;2.00;;
60859;SDS011;46694;54.382;9.708;2022-12-29T08:05:44;7.43;;;1.33;;
60859;SDS011;46694;54.382;9.708;2022-12-29T08:08:23;8.73;;;2.13;;
60859;SDS011;46694;54.382;9.708;2022-12-29T08:11:03;1.50;;;0.97;;
60859;SDS011;46694;54.382;9.708;2022-12-29T08:13:43;9.53;;;1.50;;
60859;SDS011;46694;54.382;9.708;2022-12-29T08:16:22;4.60;;;1.40;;
60859;SDS011;46694;54.382;9.708;2022-12-29T08:19:02;6.47;;;1.20;;
60859;SDS011;46694;54.382;9.708;2022-12-29T08:21:42;9.23;;;1.30;;
60859;SDS011;46694;54.382;9.708;2022-12-29T08:24:21;8.90;;;2.07;;
60859;SDS011;46694;54.382;9.708;2022-12-29T08:27:01;19.43;;;1.70;;
60859;SDS011;46694;54.382;9.708;2022-12-29T08:29:41;7.80;;;1.80;;
60859;SDS011;46694;54.382;9.708;2022-12-29T08:32:20;9.03;;;1.30;;
60859;SDS011;46694;54.382;9.708;2022-12-29T08:35:00;8.70;;;1.83;;
60859;SDS011;46694;54.382;9.708;2022-12-29T08:37:39;6.43;;;1.70;;
60859;SDS011;46694;54.382;9.708;2022-12-29T08:40:19;8.37;;;2.10;;
60859;SDS011;46694;54.382;9.708;2022-12-29T08:42:58;5.70;;;1.77;;
60859;SDS011;46694;54.382;9.708;2022-12-29T08:45:38;6.40;;;1.60;;
60859;SDS011;46694;54.382;9.708;2022-12-29T08:48:17;6.00;;;2.00;;
60859;SDS011;46694;54.382;9.708;2022-12-29T08:50:58;9.00;;;3.00;;
60859;SDS011;46694;54.382;9.708;2022-12-29T08:53:37;10.20;;;1.90;;
60859;SDS011;46694;54.382;9.708;2022-12-29T08:56:17;9.80;;;2.50;;
60859;SDS011;46694;54.382;9.708;2022-12-29T08:58:57;17.57;;;2.20;;
60859;SDS011;46694;54.382;9.708;2022-12-29T09:01:36;9.97;;;1.90;;
60859;SDS011;46694;54.382;9.708;2022-12-29T09:04:19;5.20;;;1.23;;
60859;SDS011;46694;54.382;9.708;2022-12-29T09:06:58;11.40;;;1.70;;
60859;SDS011;46694;54.382;9.708;2022-12-29T09:09:38;10.67;;;1.97;;
60859;SDS011;46694;54.382;9.708;2022-12-29T09:12:18;8.80;;;1.90;;
60859;SDS011;46694;54.382;9.708;2022-12-29T09:14:57;9.10;;;1.63;;
60859;SDS011;46694;54.382;9.708;2022-12-29T09:17:37;8.37;;;1.70;;
60859;SDS011;46694;54.382;9.708;2022-12-29T09:20:22;13.80;;;1.70;;
60859;SDS011;46694;54.382;9.708;2022-12-29T09:23:02;6.00;;;1.40;;
60859;SDS011;46694;54.382;9.708;2022-12-29T09:25:44;10.67;;;2.50;;
60859;SDS011;46694;54.382;9.708;2022-12-29T09:28:26;6.13;;;1.80;;
60859;SDS011;46694;54.382;9.708;2022-12-29T09:31:07;12.47;;;2.37;;
60859;SDS011;46694;54.382;9.708;2022-12-29T09:33:46;11.27;;;2.20;;
60859;SDS011;46694;54.382;9.708;2022-12-29T09:36:26;9.67;;;1.70;;
60859;SDS011;46694;54.382;9.708;2022-12-29T09:39:05;12.90;;;1.57;;
60859;SDS011;46694;54.382;9.708;2022-12-29T09:47:50;10.20;;;3.10;;
60859;SDS011;46694;54.382;9.708;2022-12-29T09:50:30;13.90;;;2.10;;
60859;SDS011;46694;54.382;9.708;2022-12-29T09:53:20;14.23;;;2.27;;
60859;SDS011;46694;54.382;9.708;2022-12-29T09:56:13;16.23;;;1.80;;
60859;SDS011;46694;54.382;9.708;2022-12-29T10:01:53;12.67;;;2.60;;
60859;SDS011;46694;54.382;9.708;2022-12-29T10:04:47;12.97;;;1.90;;
60859;SDS011;46694;54.382;9.708;2022-12-29T10:07:38;9.53;;;1.90;;
60859;SDS011;46694;54.382;9.708;2022-12-29T10:10:54;17.03;;;2.70;;
60859;SDS011;46694;54.382;9.708;2022-12-29T10:20:17;23.87;;;5.70;;
60859;SDS011;46694;54.382;9.708;2022-12-29T10:23:16;5.50;;;2.07;;
60859;SDS011;46694;54.382;9.708;2022-12-29T10:26:16;19.13;;;3.10;;
60859;SDS011;46694;54.382;9.708;2022-12-29T10:29:21;11.50;;;1.73;;
60859;SDS011;46694;54.382;9.708;2022-12-29T10:32:06;18.47;;;2.90;;
60859;SDS011;46694;54.382;9.708;2022-12-29T10:34:58;12.57;;;2.17;;
60859;SDS011;46694;54.382;9.708;2022-12-29T10:44:04;5.33;;;1.90;;
60859;SDS011;46694;54.382;9.708;2022-12-29T10:46:54;9.07;;;2.27;;
60859;SDS011;46694;54.382;9.708;2022-12-29T10:49:40;5.93;;;1.50;;
60859;SDS011;46694;54.382;9.708;2022-12-29T10:52:21;6.87;;;2.00;;
60859;SDS011;46694;54.382;9.708;2022-12-29T10:55:03;13.00;;;1.93;;
60859;SDS011;46694;54.382;9.708;2022-12-29T10:57:51;7.27;;;3.20;;
60859;SDS011;46694;54.382;9.708;2022-12-29T11:00:31;21.30;;;3.40;;
60859;SDS011;46694;54.382;9.708;2022-12-29T11:03:47;12.50;;;6.60;;
60859;SDS011;46694;54.382;9.708;2022-12-29T11:06:37;10.57;;;2.40;;
60859;SDS011;46694;54.382;9.708;2022-12-29T11:09:20;8.00;;;2.47;;
60859;SDS011;46694;54.382;9.708;2022-12-29T11:12:27;14.23;;;2.93;;
60859;SDS011;46694;54.382;9.708;2022-12-29T11:15:13;12.40;;;3.03;;
60859;SDS011;46694;54.382;9.708;2022-12-29T11:17:57;9.33;;;1.97;;
60859;SDS011;46694;54.382;9.708;2022-12-29T11:20:40;12.60;;;2.23;;
60859;SDS011;46694;54.382;9.708;2022-12-29T11:23:23;17.50;;;4.13;;
60859;SDS011;46694;54.382;9.708;2022-12-29T11:34:32;9.13;;;3.07;;
60859;SDS011;46694;54.382;9.708;2022-12-29T11:37:14;13.30;;;2.70;;
60859;SDS011;46694;54.382;9.708;2022-12-29T11:42:56;15.83;;;2.90;;
60859;SDS011;46694;54.382;9.708;2022-12-29T11:45:44;11.10;;;3.83;;
60859;SDS011;46694;54.382;9.708;2022-12-29T11:48:26;17.50;;;3.00;;
60859;SDS011;46694;54.382;9.708;2022-12-29T11:51:12;19.03;;;2.90;;
60859;SDS011;46694;54.382;9.708;2022-12-29T11:54:04;25.10;;;3.80;;
60859;SDS011;46694;54.382;9.708;2022-12-29T11:56:44;20.40;;;3.00;;
60859;SDS011;46694;54.382;9.708;2022-12-29T12:00:13;12.20;;;2.47;;
60859;SDS011;46694;54.382;9.708;2022-12-29T12:05:38;10.90;;;2.80;;
60859;SDS011;46694;54.382;9.708;2022-12-29T12:08:37;18.80;;;2.40;;
60859;SDS011;46694;54.382;9.708;2022-12-29T12:11:30;19.67;;;2.40;;
60859;SDS011;46694;54.382;9.708;2022-12-29T12:17:14;13.63;;;2.77;;
60859;SDS011;46694;54.382;9.708;2022-12-29T12:23:26;16.87;;;3.20;;
60859;SDS011;46694;54.382;9.708;2022-12-29T12:26:32;15.20;;;4.20;;
60859;SDS011;46694;54.382;9.708;2022-12-29T12:29:24;8.70;;;2.50;;
60859;SDS011;46694;54.382;9.708;2022-12-29T12:34:49;11.67;;;2.50;;
60859;SDS011;46694;54.382;9.708;2022-12-29T12:37:51;13.60;;;3.20;;
60859;SDS011;46694;54.382;9.708;2022-12-29T12:52:52;26.27;;;2.83;;
60859;SDS011;46694;54.382;9.708;2022-12-29T12:55:42;20.83;;;2.77;;
60859;SDS011;46694;54.382;9.708;2022-12-29T13:10:59;15.13;;;2.53;;
60859;SDS011;46694;54.382;9.708;2022-12-29T13:17:36;17.07;;;2.60;;
60859;SDS011;46694;54.382;9.708;2022-12-29T13:23:38;16.17;;;3.80;;
60859;SDS011;46694;54.382;9.708;2022-12-29T13:26:35;14.93;;;3.30;;
60859;SDS011;46694;54.382;9.708;2022-12-29T13:29:33;9.30;;;2.10;;
60859;SDS011;46694;54.382;9.708;2022-12-29T13:38:36;15.40;;;3.90;;
60859;SDS011;46694;54.382;9.708;2022-12-29T13:41:30;23.77;;;3.60;;
60859;SDS011;46694;54.382;9.708;2022-12-29T13:44:36;16.03;;;3.37;;
60859;SDS011;46694;54.382;9.708;2022-12-29T13:50:16;18.47;;;3.03;;
60859;SDS011;46694;54.382;9.708;2022-12-29T13:56:06;28.70;;;3.23;;
60859;SDS011;46694;54.382;9.708;2022-12-29T13:58:57;24.63;;;3.40;;
60859;SDS011;46694;54.382;9.708;2022-12-29T14:01:59;18.57;;;3.83;;
60859;SDS011;46694;54.382;9.708;2022-12-29T14:08:00;27.53;;;3.90;;
60859;SDS011;46694;54.382;9.708;2022-12-29T14:13:27;15.70;;;4.07;;
60859;SDS011;46694;54.382;9.708;2022-12-29T14:16:10;29.13;;;4.37;;
60859;SDS011;46694;54.382;9.708;2022-12-29T14:22:02;23.70;;;3.47;;
60859;SDS011;46694;54.382;9.708;2022-12-29T14:24:44;28.17;;;5.20;;
60859;SDS011;46694;54.382;9.708;2022-12-29T14:30:19;25.90;;;5.53;;
60859;SDS011;46694;54.382;9.708;2022-12-29T14:33:40;36.70;;;6.90;;
60859;SDS011;46694;54.382;9.708;2022-12-29T14:42:22;31.08;;;10.55;;
60859;SDS011;46694;54.382;9.708;2022-12-29T14:45:05;30.00;;;6.57;;
60859;SDS011;46694;54.382;9.708;2022-12-29T14:47:58;27.03;;;5.20;;
60859;SDS011;46694;54.382;9.708;2022-12-29T14:50:42;25.47;;;4.97;;
60859;SDS011;46694;54.382;9.708;2022-12-29T14:56:27;34.83;;;5.63;;
60859;SDS011;46694;54.382;9.708;2022-12-29T14:59:10;31.23;;;4.50;;
60859;SDS011;46694;54.382;9.708;2022-12-29T15:01:52;29.80;;;4.35;;
60859;SDS011;46694;54.382;9.708;2022-12-29T15:04:34;18.67;;;4.37;;
60859;SDS011;46694;54.382;9.708;2022-12-29T15:07:15;38.83;;;5.30;;
60859;SDS011;46694;54.382;9.708;2022-12-29T15:10:03;39.90;;;4.45;;
60859;SDS011;46694;54.382;9.708;2022-12-29T15:12:52;24.15;;;6.13;;
60859;SDS011;46694;54.382;9.708;2022-12-29T15:15:36;19.67;;;3.83;;
60859;SDS011;46694;54.382;9.708;2022-12-29T15:21:11;21.87;;;4.23;;
60859;SDS011;46694;54.382;9.708;2022-12-29T15:23:53;23.17;;;3.80;;
60859;SDS011;46694;54.382;9.708;2022-12-29T15:26:36;30.30;;;3.83;;
60859;SDS011;46694;54.382;9.708;2022-12-29T15:29:33;19.70;;;4.30;;
60859;SDS011;46694;54.382;9.708;2022-12-29T15:32:19;28.88;;;4.20;;
60859;SDS011;46694;54.382;9.708;2022-12-29T15:35:20;20.20;;;4.00;;
60859;SDS011;46694;54.382;9.708;2022-12-29T15:38:15;24.60;;;4.10;;
60859;SDS011;46694;54.382;9.708;2022-12-29T15:41:02;32.93;;;5.13;;
60859;SDS011;46694;54.382;9.708;2022-12-29T15:44:00;26.20;;;4.13;;
60859;SDS011;46694;54.382;9.708;2022-12-29T15:46:48;25.50;;;4.78;;
60859;SDS011;46694;54.382;9.708;2022-12-29T15:49:28;22.00;;;3.37;;
60859;SDS011;46694;54.382;9.708;2022-12-29T15:52:08;22.90;;;4.15;;
60859;SDS011;46694;54.382;9.708;2022-12-29T15:54:49;21.00;;;3.80;;
60859;SDS011;46694;54.382;9.708;2022-12-29T15:57:36;28.90;;;3.50;;
60859;SDS011;46694;54.382;9.708;2022-12-29T16:00:24;21.73;;;4.40;;
60859;SDS011;46694;54.382;9.708;2022-12-29T16:03:11;32.70;;;4.97;;
60859;SDS011;46694;54.382;9.708;2022-12-29T16:06:39;19.58;;;4.88;;
60859;SDS011;46694;54.382;9.708;2022-12-29T16:09:17;21.75;;;4.90;;
60859;SDS011;46694;54.382;9.708;2022-12-29T16:12:13;25.25;;;4.78;;
60859;SDS011;46694;54.382;9.708;2022-12-29T16:15:12;32.63;;;5.05;;
60859;SDS011;46694;54.382;9.708;2022-12-29T16:17:53;26.48;;;5.22;;
60859;SDS011;46694;54.382;9.708;2022-12-29T16:20:37;23.52;;;2.90;;
60859;SDS011;46694;54.382;9.708;2022-12-29T16:23:21;25.13;;;3.40;;
60859;SDS011;46694;54.382;9.708;2022-12-29T16:26:04;17.52;;;3.63;;
60859;SDS011;46694;54.382;9.708;2022-12-29T16:28:55;15.90;;;3.50;;
60859;SDS011;46694;54.382;9.708;2022-12-29T16:32:44;19.88;;;3.97;;
60859;SDS011;46694;54.382;9.708;2022-12-29T16:35:27;27.13;;;4.15;;
60859;SDS011;46694;54.382;9.708;2022-12-29T16:43:37;17.67;;;2.92;;
60859;SDS011;46694;54.382;9.708;2022-12-29T16:46:24;25.02;;;3.50;;
60859;SDS011;46694;54.382;9.708;2022-12-29T16:49:07;28.33;;;3.30;;
60859;SDS011;46694;54.382;9.708;2022-12-29T16:51:56;20.10;;;3.10;;
60859;SDS011;46694;54.382;9.708;2022-12-29T16:54:36;14.18;;;2.65;;
60859;SDS011;46694;54.382;9.708;2022-12-29T16:57:30;13.30;;;2.80;;
60859;SDS011;46694;54.382;9.708;2022-12-29T17:00:21;30.80;;;4.03;;
60859;SDS011;46694;54.382;9.708;2022-12-29T17:03:04;25.35;;;3.35;;
60859;SDS011;46694;54.382;9.708;2022-12-29T17:05:44;21.30;;;3.70;;
60859;SDS011;46694;54.382;9.708;2022-12-29T17:08:24;10.82;;;3.05;;
60859;SDS011;46694;54.382;9.708;2022-12-29T17:11:04;17.27;;;2.75;;
60859;SDS011;46694;54.382;9.708;2022-12-29T17:14:02;18.67;;;3.45;;
60859;SDS011;46694;54.382;9.708;2022-12-29T17:16:42;17.90;;;2.72;;
60859;SDS011;46694;54.382;9.708;2022-12-29T17:19:26;18.98;;;2.38;;
60859;SDS011;46694;54.382;9.708;2022-12-29T17:22:23;12.88;;;2.88;;
60859;SDS011;46694;54.382;9.708;2022-12-29T17:25:06;16.73;;;3.03;;
60859;SDS011;46694;54.382;9.708;2022-12-29T17:27:58;17.50;;;3.85;;
60859;SDS011;46694;54.382;9.708;2022-12-29T17:30:44;25.45;;;3.50;;
60859;SDS011;46694;54.382;9.708;2022-12-29T17:33:24;17.80;;;2.33;;
60859;SDS011;46694;54.382;9.708;2022-12-29T17:36:03;13.13;;;2.85;;
60859;SDS011;46694;54.382;9.708;2022-12-29T17:38:43;12.07;;;2.63;;
60859;SDS011;46694;54.382;9.708;2022-12-29T17:41:22;14.70;;;3.88;;
60859;SDS011;46694;54.382;9.708;2022-12-29T17:44:02;17.95;;;3.53;;
60859;SDS011;46694;54.382;9.708;2022-12-29T17:46:44;12.75;;;3.30;;
60859;SDS011;46694;54.382;9.708;2022-12-29T17:49:27;18.13;;;2.90;;
60859;SDS011;46694;54.382;9.708;2022-12-29T17:52:08;9.95;;;1.50;;
60859;SDS011;46694;54.382;9.708;2022-12-29T17:54:49;9.60;;;2.08;;
60859;SDS011;46694;54.382;9.708;2022-12-29T17:57:30;5.63;;;1.55;;
60859;SDS011;46694;54.382;9.708;2022-12-29T18:00:14;12.20;;;2.10;;
60859;SDS011;46694;54.382;9.708;2022-12-29T18:02:59;12.43;;;2.38;;
60859;SDS011;46694;54.382;9.708;2022-12-29T18:05:39;21.80;;;4.32;;
60859;SDS011;46694;54.382;9.708;2022-12-29T18:08:18;15.52;;;3.42;;
60859;SDS011;46694;54.382;9.708;2022-12-29T18:10:58;18.00;;;5.10;;
60859;SDS011;46694;54.382;9.708;2022-12-29T18:13:37;31.67;;;7.82;;
60859;SDS011;46694;54.382;9.708;2022-12-29T18:16:17;22.48;;;4.32;;
60859;SDS011;46694;54.382;9.708;2022-12-29T18:19:00;16.08;;;4.13;;
60859;SDS011;46694;54.382;9.708;2022-12-29T18:21:39;13.35;;;2.50;;
60859;SDS011;46694;54.382;9.708;2022-12-29T18:24:20;10.18;;;2.25;;
60859;SDS011;46694;54.382;9.708;2022-12-29T18:27:01;13.88;;;2.88;;
60859;SDS011;46694;54.382;9.708;2022-12-29T18:29:51;18.75;;;2.33;;
60859;SDS011;46694;54.382;9.708;2022-12-29T18:32:31;10.50;;;2.17;;
60859;SDS011;46694;54.382;9.708;2022-12-29T18:35:15;8.30;;;3.00;;
60859;SDS011;46694;54.382;9.708;2022-12-29T18:38:00;11.00;;;2.53;;
60859;SDS011;46694;54.382;9.708;2022-12-29T18:40:39;19.43;;;2.97;;
60859;SDS011;46694;54.382;9.708;2022-12-29T18:43:19;12.15;;;2.95;;
60859;SDS011;46694;54.382;9.708;2022-12-29T18:46:00;16.35;;;4.05;;
60859;SDS011;46694;54.382;9.708;2022-12-29T18:48:39;21.40;;;3.38;;
60859;SDS011;46694;54.382;9.708;2022-12-29T18:51:20;19.67;;;3.70;;
60859;SDS011;46694;54.382;9.708;2022-12-29T18:54:01;17.73;;;2.70;;
60859;SDS011;46694;54.382;9.708;2022-12-29T18:56:41;23.33;;;5.63;;